Time;durP1;ratioP1;P1;durP2;ratioP2;P2;SDS_P1;SDS_P2;PMS_P1;PMS_P2;Temp;Humidity;BMP_temperature;BMP_pressure;BME280_temperature;BME280_humidity;BME280_pressure;Samples;Min_cycle;Max_cycle;Signal;HPM_P1;HPM_P2
2024/01/06 00:00:31;;;;;;;192.10;73.32;;;;;;;-0.73;99.71;100086.88;6238502;23;20020;-67
2024/01/06 00:02:59;;;;;;;192.38;71.97;;;;;;;-0.74;100.00;100090.47;6249433;23;20024;-68
2024/01/06 00:05:26;;;;;;;185.48;68.13;;;;;;;-0.77;99.98;100090.66;6245878;23;20502;-66
2024/01/06 00:07:54;;;;;;;186.80;71.35;;;;;;;-0.76;99.78;100085.22;6210433;23;20020;-67
2024/01/06 00:10:20;;;;;;;181.55;69.32;;;;;;;-0.74;100.00;100090.47;6248497;23;20498;-65
2024/01/06 00:12:48;;;;;;;191.45;72.40;;;;;;;-0.76;99.96;100092.38;6244508;23;20023;-67
2024/01/06 00:15:15;;;;;;;194.98;73.05;;;;;;;-0.77;99.93;100087.97;6246346;22;20103;-70
2024/01/06 00:17:42;;;;;;;193.07;69.32;;;;;;;-0.84;100.00;100089.22;6251601;23;20016;-67
2024/01/06 00:20:09;;;;;;;202.27;70.53;;;;;;;-0.80;99.99;100091.69;6248556;23;20370;-69
2024/01/06 00:22:36;;;;;;;187.70;71.82;;;;;;;-0.78;100.00;100094.25;6212423;23;20099;-68
2024/01/06 00:25:05;;;;;;;195.48;72.13;;;;;;;-0.82;100.00;100082.03;6248411;23;20023;-73
2024/01/06 00:27:31;;;;;;;201.18;72.43;;;;;;;-0.80;100.00;100085.50;6240221;23;20027;-72
2024/01/06 00:30:01;;;;;;;192.52;70.82;;;;;;;-0.83;99.77;100074.97;6240682;23;20074;-72
2024/01/06 00:32:29;;;;;;;192.32;70.88;;;;;;;-0.86;100.00;100080.47;6240634;23;20074;-72
2024/01/06 00:34:55;;;;;;;185.75;70.03;;;;;;;-0.89;99.86;100088.63;6199636;23;20094;-69
2024/01/06 00:37:23;;;;;;;186.23;68.75;;;;;;;-0.90;99.99;100090.44;6237657;23;20024;-70
2024/01/06 00:39:50;;;;;;;170.93;65.85;;;;;;;-0.90;100.00;100097.56;6238191;23;20418;-72
2024/01/06 00:42:17;;;;;;;188.43;68.60;;;;;;;-0.88;100.00;100099.19;6215333;23;20024;-69
2024/01/06 00:44:45;;;;;;;179.43;67.20;;;;;;;-0.88;99.93;100106.31;6240663;23;20340;-71
2024/01/06 00:47:11;;;;;;;200.50;70.47;;;;;;;-0.84;99.92;100103.41;6239975;23;20543;-69
2024/01/06 00:49:38;;;;;;;175.93;67.75;;;;;;;-0.90;100.00;100097.56;6240786;23;20016;-69
2024/01/06 00:52:05;;;;;;;189.18;67.88;;;;;;;-0.93;100.00;100100.34;6239710;23;20024;-68
2024/01/06 00:54:32;;;;;;;169.80;65.30;;;;;;;-0.93;99.66;100106.53;6240662;23;20024;-69
2024/01/06 00:56:58;;;;;;;178.35;65.82;;;;;;;-0.95;99.83;100107.56;6213219;23;20362;-70
2024/01/06 00:59:25;;;;;;;177.82;65.28;;;;;;;-0.96;99.62;100112.03;6238453;23;20032;-69
2024/01/06 01:01:52;;;;;;;184.05;66.93;;;;;;;-0.89;100.00;100115.25;6239976;23;20016;-69
2024/01/06 01:04:18;;;;;;;178.63;67.82;;;;;;;-0.88;100.00;100111.63;6240378;23;20027;-69
2024/01/06 01:06:45;;;;;;;180.30;66.07;;;;;;;-0.87;100.00;100121.34;6242104;23;20040;-70
2024/01/06 01:09:14;;;;;;;186.45;67.25;;;;;;;-0.88;99.35;100114.31;6241986;23;20403;-69
2024/01/06 01:11:41;;;;;;;176.32;66.43;;;;;;;-0.88;99.72;100123.16;6240784;23;20028;-69
2024/01/06 01:14:08;;;;;;;165.38;63.33;;;;;;;-0.86;99.58;100128.38;6242018;23;20035;-69
2024/01/06 01:16:35;;;;;;;177.35;65.50;;;;;;;-0.87;99.51;100130.19;6242220;22;20021;-70
2024/01/06 01:19:02;;;;;;;158.35;62.80;;;;;;;-0.91;99.51;100131.28;6241816;23;20020;-69
2024/01/06 01:21:28;;;;;;;159.50;62.97;;;;;;;-0.89;99.68;100133.88;6241024;23;20076;-70
2024/01/06 01:23:55;;;;;;;163.27;63.15;;;;;;;-0.91;99.39;100141.06;6240717;23;20055;-69
2024/01/06 01:26:22;;;;;;;155.35;63.00;;;;;;;-0.94;99.63;100135.91;6240888;23;20020;-70
2024/01/06 01:28:48;;;;;;;161.70;62.90;;;;;;;-0.98;99.61;100129.88;6241255;23;20076;-70
2024/01/06 01:31:15;;;;;;;155.32;59.97;;;;;;;-1.01;99.26;100130.00;6241040;23;20019;-71
2024/01/06 01:33:42;;;;;;;166.73;60.95;;;;;;;-0.94;99.63;100136.75;6240943;23;20112;-69
2024/01/06 01:36:09;;;;;;;157.45;61.22;;;;;;;-0.97;99.64;100130.75;6239996;23;20089;-69
2024/01/06 01:38:36;;;;;;;164.68;61.90;;;;;;;-0.94;99.42;100127.91;6241086;23;20093;-69
2024/01/06 01:41:02;;;;;;;162.43;61.60;;;;;;;-1.03;99.28;100124.78;6241995;23;20083;-69
2024/01/06 01:43:30;;;;;;;158.45;60.65;;;;;;;-1.05;99.13;100129.31;6241370;23;20039;-69
2024/01/06 01:45:57;;;;;;;159.80;60.67;;;;;;;-1.08;99.18;100129.47;6241041;23;20407;-69
2024/01/06 01:48:25;;;;;;;155.30;57.92;;;;;;;-1.05;99.30;100131.97;6240730;23;20346;-68
2024/01/06 01:50:53;;;;;;;147.82;58.95;;;;;;;-1.05;99.21;100137.31;6239877;23;20103;-69
2024/01/06 01:53:21;;;;;;;157.15;58.33;;;;;;;-1.03;99.48;100138.06;6240517;23;20100;-69
2024/01/06 01:55:49;;;;;;;146.63;55.95;;;;;;;-1.08;99.25;100136.59;6240579;23;20038;-69
2024/01/06 01:58:16;;;;;;;150.15;61.65;;;;;;;-1.07;99.46;100147.16;6240912;23;20070;-68
2024/01/06 02:00:42;;;;;;;150.50;58.80;;;;;;;-1.06;99.55;100143.56;6240892;23;20089;-68
2024/01/06 02:03:10;;;;;;;152.93;60.30;;;;;;;-1.11;99.16;100148.25;6241056;23;20020;-68
2024/01/06 02:09:28;;;;;;;146.48;56.92;;;;;;;-1.07;99.56;100147.16;6238700;23;20018;-68
2024/01/06 02:11:58;;;;;;;150.07;58.80;;;;;;;-0.99;99.31;100153.91;6237286;23;20541;-68
2024/01/06 02:14:25;;;;;;;143.07;55.20;;;;;;;-1.01;99.06;100156.63;6238493;23;20481;-68
2024/01/06 02:16:51;;;;;;;144.85;58.03;;;;;;;-1.04;99.08;100156.78;6259561;22;20334;-70
2024/01/06 02:19:18;;;;;;;136.00;56.20;;;;;;;-1.04;99.11;100151.47;6270022;22;20023;-69
2024/01/06 02:21:50;;;;;;;135.93;54.63;;;;;;;-1.02;98.88;100153.09;6242811;22;20024;-69
2024/01/06 02:24:17;;;;;;;135.25;55.70;;;;;;;-1.02;99.05;100161.09;6244237;22;20016;-69
2024/01/06 02:26:43;;;;;;;133.98;54.40;;;;;;;-0.98;98.90;100155.63;6271178;22;20027;-69
2024/01/06 02:29:10;;;;;;;129.63;54.50;;;;;;;-0.95;98.79;100160.78;6270398;22;20028;-68
2024/01/06 02:31:37;;;;;;;124.45;53.55;;;;;;;-1.07;98.73;100163.13;6270776;22;20339;-68
2024/01/06 02:34:03;;;;;;;125.00;53.25;;;;;;;-1.10;99.00;100163.25;6271574;22;20403;-68
2024/01/06 02:36:30;;;;;;;135.13;53.70;;;;;;;-1.08;98.81;100165.88;6270682;22;20053;-68
2024/01/06 02:38:57;;;;;;;121.75;50.40;;;;;;;-1.06;98.59;100170.19;6271496;22;20027;-68
2024/01/06 02:41:25;;;;;;;123.15;52.72;;;;;;;-0.96;98.72;100173.25;6272204;22;20073;-69
2024/01/06 02:43:52;;;;;;;128.05;53.60;;;;;;;-0.99;98.80;100175.22;6271838;22;20020;-68
2024/01/06 02:46:18;;;;;;;128.65;52.10;;;;;;;-0.99;98.58;100175.22;6271292;22;20092;-68
2024/01/06 02:48:45;;;;;;;126.85;53.40;;;;;;;-1.01;98.68;100173.47;6271357;22;20036;-69
2024/01/06 02:51:12;;;;;;;127.47;54.90;;;;;;;-1.01;98.93;100178.78;6271173;22;20024;-69
2024/01/06 02:53:39;;;;;;;131.88;53.40;;;;;;;-0.99;98.68;100176.06;6243030;22;20091;-69
2024/01/06 02:56:10;;;;;;;128.82;52.38;;;;;;;-0.97;98.72;100178.66;6269707;22;20028;-68
2024/01/06 02:58:38;;;;;;;128.85;54.30;;;;;;;-1.01;99.11;100177.91;6269698;22;20111;-69
2024/01/06 03:01:04;;;;;;;120.03;52.45;;;;;;;-0.97;98.82;100182.16;6269177;22;20336;-68
2024/01/06 03:03:31;;;;;;;121.50;49.85;;;;;;;-1.07;98.73;100183.56;6271265;22;20023;-70
2024/01/06 03:05:58;;;;;;;125.28;54.13;;;;;;;-1.09;98.85;100180.97;6270023;22;20032;-68
2024/01/06 03:08:24;;;;;;;124.45;52.47;;;;;;;-1.05;99.02;100184.34;6272003;22;20016;-69
2024/01/06 03:10:51;;;;;;;134.43;53.60;;;;;;;-1.04;98.94;100184.25;6270791;22;20392;-69
2024/01/06 03:13:17;;;;;;;121.60;52.00;;;;;;;-1.05;98.84;100185.19;6270215;22;20024;-68
2024/01/06 03:15:44;;;;;;;130.10;52.22;;;;;;;-1.04;98.95;100181.59;6268175;22;20016;-69
2024/01/06 03:18:11;;;;;;;133.90;53.15;;;;;;;-1.03;98.98;100190.44;6242241;22;20111;-68
2024/01/06 03:20:37;;;;;;;130.15;52.45;;;;;;;-0.98;99.08;100192.91;6269092;22;20020;-69
2024/01/06 03:23:04;;;;;;;125.57;50.85;;;;;;;-1.03;98.85;100191.31;6268271;22;20123;-69
2024/01/06 03:25:32;;;;;;;136.35;54.63;;;;;;;-0.96;98.86;100196.34;6267339;22;20093;-68
2024/01/06 03:27:58;;;;;;;134.30;55.05;;;;;;;-1.06;98.66;100185.28;6267664;22;20034;-70
2024/01/06 03:30:25;;;;;;;126.47;52.50;;;;;;;-1.10;98.98;100194.34;6267426;22;20082;-68
2024/01/06 03:32:52;;;;;;;134.43;51.20;;;;;;;-1.06;99.23;100199.44;6269323;22;20098;-69
2024/01/06 03:35:18;;;;;;;135.02;54.67;;;;;;;-1.04;99.12;100210.03;6268189;22;20032;-68
2024/01/06 03:37:45;;;;;;;130.07;53.33;;;;;;;-1.07;98.58;100211.03;6267188;22;20117;-69
2024/01/06 03:40:12;;;;;;;131.02;54.05;;;;;;;-1.12;98.99;100206.88;6269339;22;20020;-69
2024/01/06 03:42:39;;;;;;;133.80;53.03;;;;;;;-1.08;99.07;100205.78;6268264;22;20437;-69
2024/01/06 03:45:06;;;;;;;133.32;52.90;;;;;;;-1.09;99.19;100207.59;6265236;22;20335;-68
2024/01/06 03:47:32;;;;;;;129.63;53.00;;;;;;;-1.10;98.99;100212.97;6267514;22;20020;-68
2024/01/06 03:49:59;;;;;;;126.47;47.88;;;;;;;-1.13;99.12;100216.66;6256113;22;20098;-69
2024/01/06 03:52:26;;;;;;;138.35;52.80;;;;;;;-1.15;99.34;100221.19;6267829;22;20019;-68
2024/01/06 03:54:53;;;;;;;133.95;54.22;;;;;;;-1.10;99.09;100212.97;6268707;22;20058;-69
2024/01/06 03:57:19;;;;;;;137.02;53.15;;;;;;;-1.14;98.95;100220.25;6268609;22;20047;-68
2024/01/06 03:59:46;;;;;;;134.23;52.17;;;;;;;-1.14;99.13;100220.25;6269073;22;20072;-70
2024/01/06 04:02:13;;;;;;;133.13;52.58;;;;;;;-1.15;98.84;100217.66;6269151;22;20057;-69
2024/01/06 04:04:39;;;;;;;125.80;51.45;;;;;;;-1.10;99.33;100220.94;6270703;22;20446;-69
2024/01/06 04:07:06;;;;;;;121.63;47.65;;;;;;;-1.17;98.99;100230.19;6233785;23;20058;-68
2024/01/06 04:09:34;;;;;;;131.07;49.97;;;;;;;-1.10;98.71;100234.25;6261650;22;20019;-69
2024/01/06 04:12:00;;;;;;;121.15;50.35;;;;;;;-1.16;98.79;100235.44;6266365;22;20106;-68
2024/01/06 04:14:28;;;;;;;129.88;49.88;;;;;;;-1.12;99.29;100231.69;6239748;22;20027;-67
2024/01/06 04:16:56;;;;;;;125.00;51.65;;;;;;;-1.06;99.23;100244.69;6267193;22;20031;-70
2024/01/06 04:19:23;;;;;;;140.65;49.92;;;;;;;-1.08;99.00;100243.91;6266890;22;20023;-69
2024/01/06 04:21:50;;;;;;;129.60;50.97;;;;;;;-1.06;98.82;100244.69;6266775;22;20022;-69
2024/01/06 04:24:17;;;;;;;130.00;49.83;;;;;;;-1.13;99.13;100242.41;6266452;22;20027;-69
2024/01/06 04:26:44;;;;;;;130.25;49.95;;;;;;;-1.08;99.04;100241.25;6266502;22;20429;-68
2024/01/06 04:29:12;;;;;;;123.07;49.15;;;;;;;-1.10;98.85;100248.41;6266158;22;20047;-69
2024/01/06 04:31:39;;;;;;;130.50;51.03;;;;;;;-1.14;98.80;100249.53;6266095;22;20036;-68
2024/01/06 04:34:06;;;;;;;124.82;49.92;;;;;;;-1.13;98.88;100245.91;6267083;22;20307;-69
2024/01/06 04:36:32;;;;;;;130.90;51.40;;;;;;;-1.13;99.11;100243.25;6271153;22;20023;-69
2024/01/06 04:38:59;;;;;;;127.50;48.30;;;;;;;-1.15;99.22;100253.13;6271412;22;20057;-69
2024/01/06 04:41:27;;;;;;;127.22;49.63;;;;;;;-1.12;99.06;100252.97;6272042;22;20105;-69
2024/01/06 04:43:53;;;;;;;131.52;49.42;;;;;;;-1.11;99.22;100260.00;6271444;22;20085;-69
2024/01/06 04:46:20;;;;;;;131.48;51.20;;;;;;;-1.15;98.62;100261.09;6272981;22;20028;-69
2024/01/06 04:48:47;;;;;;;129.57;49.72;;;;;;;-1.14;98.65;100257.50;6274079;22;20030;-69
2024/01/06 04:51:14;;;;;;;133.57;50.05;;;;;;;-1.18;98.71;100257.75;6273302;22;20070;-69
2024/01/06 04:53:41;;;;;;;135.32;52.08;;;;;;;-1.17;99.25;100265.66;6273571;22;20043;-69
2024/01/06 04:56:08;;;;;;;141.55;52.72;;;;;;;-1.20;98.65;100271.09;6273691;22;20042;-69
2024/01/06 04:58:35;;;;;;;140.20;50.10;;;;;;;-1.19;99.15;100271.94;6273476;22;20074;-69
2024/01/06 05:01:02;;;;;;;149.93;54.28;;;;;;;-1.22;98.99;100264.97;6273902;22;20027;-69
2024/01/06 05:03:29;;;;;;;144.27;52.88;;;;;;;-1.20;99.45;100271.09;6273826;22;20106;-69
2024/01/06 05:05:56;;;;;;;142.30;53.38;;;;;;;-1.16;99.35;100272.69;6247000;22;20026;-69
2024/01/06 05:08:22;;;;;;;135.98;51.70;;;;;;;-1.11;98.91;100268.00;6273612;22;20023;-69
2024/01/06 05:10:51;;;;;;;133.68;52.00;;;;;;;-1.18;99.01;100266.59;6272984;22;20043;-69
2024/01/06 05:13:17;;;;;;;151.60;53.28;;;;;;;-1.17;98.82;100278.09;6273352;22;20433;-70
2024/01/06 05:15:44;;;;;;;147.15;53.50;;;;;;;-1.20;99.36;100276.41;6273180;22;20447;-70
2024/01/06 05:18:10;;;;;;;154.10;55.50;;;;;;;-1.22;99.45;100280.09;6273449;22;20027;-69
2024/01/06 05:20:37;;;;;;;164.60;55.97;;;;;;;-1.21;99.49;100280.00;6273398;22;20027;-69
2024/01/06 05:23:04;;;;;;;153.38;55.75;;;;;;;-1.21;99.05;100290.66;6273521;22;20027;-69
2024/01/06 05:25:30;;;;;;;137.05;54.42;;;;;;;-1.24;99.20;100284.63;6273185;22;20019;-70
2024/01/06 05:27:57;;;;;;;142.73;54.50;;;;;;;-1.19;99.48;100286.13;6271909;22;20028;-69
2024/01/06 05:30:24;;;;;;;152.88;54.28;;;;;;;-1.21;99.06;100288.00;6273066;22;20019;-69
2024/01/06 05:32:50;;;;;;;163.43;55.90;;;;;;;-1.20;98.93;100288.84;6270558;22;20020;-69
2024/01/06 05:35:17;;;;;;;158.57;57.22;;;;;;;-1.20;99.00;100284.41;6242317;22;20027;-67
2024/01/06 05:37:44;;;;;;;155.43;57.03;;;;;;;-1.21;99.21;100288.00;6268702;22;20351;-68
2024/01/06 05:40:11;;;;;;;159.65;57.00;;;;;;;-1.17;99.06;100296.72;6268582;22;20085;-68
2024/01/06 05:42:38;;;;;;;158.18;58.05;;;;;;;-1.18;99.37;100301.19;6268714;22;20023;-67
2024/01/06 05:45:05;;;;;;;174.88;60.22;;;;;;;-1.14;99.40;100305.41;6268488;22;20070;-67
2024/01/06 05:47:32;;;;;;;170.55;58.65;;;;;;;-1.16;99.18;100317.94;6268261;22;20019;-68
2024/01/06 05:49:59;;;;;;;180.13;58.72;;;;;;;-1.20;99.00;100315.47;6270305;22;20027;-69
2024/01/06 05:52:25;;;;;;;170.80;59.78;;;;;;;-1.21;99.05;100322.59;6270513;22;20073;-69
2024/01/06 05:54:52;;;;;;;172.65;58.08;;;;;;;-1.28;99.01;100321.13;6272741;22;20024;-70
2024/01/06 05:57:19;;;;;;;161.02;59.75;;;;;;;-1.27;99.04;100325.53;6271255;22;20050;-69
2024/01/06 05:59:45;;;;;;;182.80;63.47;;;;;;;-1.22;99.08;100327.97;6268764;22;20027;-67
2024/01/06 06:02:13;;;;;;;163.18;56.65;;;;;;;-1.28;98.59;100323.78;6269486;22;20100;-67
2024/01/06 06:04:40;;;;;;;184.55;61.25;;;;;;;-1.33;98.94;100325.81;6269988;22;20028;-66
2024/01/06 06:07:06;;;;;;;174.88;60.15;;;;;;;-1.31;98.80;100332.78;6269857;22;20450;-66
2024/01/06 06:09:34;;;;;;;189.15;59.97;;;;;;;-1.22;99.41;100347.47;6268701;22;20027;-67
2024/01/06 06:12:01;;;;;;;180.57;59.97;;;;;;;-1.22;98.67;100350.13;6267576;22;20023;-67
2024/01/06 06:14:28;;;;;;;172.65;59.72;;;;;;;-1.18;98.83;100358.84;6267577;22;20020;-67
2024/01/06 06:16:56;;;;;;;175.80;60.45;;;;;;;-1.24;98.75;100357.31;6267080;22;20105;-67
2024/01/06 06:19:23;;;;;;;167.82;60.50;;;;;;;-1.18;98.89;100364.19;6268923;22;20035;-69
2024/01/06 06:21:50;;;;;;;172.02;60.47;;;;;;;-1.18;99.06;100373.03;6270760;22;20104;-69
2024/01/06 06:24:17;;;;;;;167.35;59.95;;;;;;;-1.28;98.53;100371.69;6270260;22;20048;-68
2024/01/06 06:26:43;;;;;;;162.70;57.67;;;;;;;-1.32;98.42;100378.09;6267878;22;20019;-67
2024/01/06 06:29:10;;;;;;;162.88;56.97;;;;;;;-1.32;98.42;100386.94;6268507;22;20015;-67
2024/01/06 06:31:36;;;;;;;177.90;60.22;;;;;;;-1.30;98.58;100384.19;6269018;22;20442;-67
2024/01/06 06:34:03;;;;;;;164.95;57.85;;;;;;;-1.27;98.56;100393.88;6269570;22;20023;-67
2024/01/06 06:36:35;;;;;;;168.43;58.30;;;;;;;-1.35;98.73;100392.41;6267950;22;20089;-67
2024/01/06 06:39:04;;;;;;;158.02;55.20;;;;;;;-1.35;98.47;100392.41;6269072;22;20024;-68
2024/01/06 06:41:30;;;;;;;167.35;58.70;;;;;;;-1.30;98.86;100395.69;6269816;22;20023;-67
2024/01/06 06:43:57;;;;;;;152.38;56.90;;;;;;;-1.35;98.74;100402.19;6270086;22;20032;-69
2024/01/06 06:46:24;;;;;;;162.07;56.58;;;;;;;-1.36;98.77;100403.97;6270443;22;20119;-68
2024/01/06 06:48:51;;;;;;;157.95;56.63;;;;;;;-1.33;98.79;100403.81;6270036;22;20054;-68
2024/01/06 06:51:18;;;;;;;157.13;57.03;;;;;;;-1.35;98.46;100413.69;6266913;22;20020;-67
2024/01/06 06:53:44;;;;;;;148.05;54.47;;;;;;;-1.33;98.63;100421.59;6267728;22;20099;-68
2024/01/06 06:56:17;;;;;;;166.88;55.65;;;;;;;-1.37;98.76;100425.34;6267700;22;20054;-67
2024/01/06 06:58:43;;;;;;;176.05;59.05;;;;;;;-1.34;98.99;100425.19;6267314;22;20024;-68
2024/01/06 07:01:10;;;;;;;163.27;57.03;;;;;;;-1.38;98.82;100427.09;6267158;22;20434;-68
2024/01/06 07:03:37;;;;;;;159.93;55.17;;;;;;;-1.38;98.91;100439.53;6268906;22;20016;-68
2024/01/06 07:06:04;;;;;;;154.88;55.88;;;;;;;-1.37;99.08;100444.81;6268785;22;20058;-67
2024/01/06 07:08:30;;;;;;;167.85;58.63;;;;;;;-1.33;99.20;100448.19;6270016;22;20031;-67
2024/01/06 07:10:57;;;;;;;165.68;59.17;;;;;;;-1.37;98.98;100457.25;6267961;22;20366;-67
2024/01/06 07:13:24;;;;;;;164.52;57.20;;;;;;;-1.36;99.09;100456.31;6268090;22;20027;-67
2024/01/06 07:15:50;;;;;;;160.73;57.63;;;;;;;-1.37;98.92;100457.25;6268177;22;20027;-68
2024/01/06 07:18:22;;;;;;;163.20;57.72;;;;;;;-1.44;99.00;100453.13;6268405;22;20115;-67
2024/01/06 07:20:49;;;;;;;161.38;57.33;;;;;;;-1.40;99.30;100462.69;6267231;22;20027;-67
2024/01/06 07:23:16;;;;;;;176.43;61.40;;;;;;;-1.38;99.45;100463.47;6268583;22;20027;-68
2024/01/06 07:25:43;;;;;;;168.82;58.83;;;;;;;-1.38;99.08;100466.13;6269181;22;20020;-68
2024/01/06 07:28:09;;;;;;;159.07;56.67;;;;;;;-1.43;98.95;100470.81;6268582;22;20411;-68
2024/01/06 07:30:37;;;;;;;155.25;56.30;;;;;;;-1.47;99.03;100482.50;6268533;22;20081;-68
2024/01/06 07:33:04;;;;;;;160.77;55.60;;;;;;;-1.49;99.19;100489.69;6269355;22;20401;-69
2024/01/06 07:35:30;;;;;;;156.15;53.13;;;;;;;-1.53;99.18;100482.78;6269171;22;20019;-68
2024/01/06 07:37:57;;;;;;;166.23;53.92;;;;;;;-1.60;99.42;100490.13;6269504;22;20032;-68
2024/01/06 07:40:25;;;;;;;161.23;55.67;;;;;;;-1.58;99.70;100493.59;6270383;22;20311;-68
2024/01/06 07:42:52;;;;;;;157.02;55.05;;;;;;;-1.55;99.37;100490.81;6268944;22;20479;-68
2024/01/06 07:45:18;;;;;;;178.90;56.15;;;;;;;-1.61;99.58;100491.94;6269223;22;20051;-68
2024/01/06 07:47:45;;;;;;;165.93;56.92;;;;;;;-1.59;99.78;100495.38;6269064;22;22303;-68
2024/01/06 07:50:12;;;;;;;171.07;56.92;;;;;;;-1.63;99.46;100503.56;6268946;22;20027;-68
2024/01/06 07:52:38;;;;;;;178.07;58.75;;;;;;;-1.69;99.91;100514.44;6268719;22;20047;-68
2024/01/06 07:55:05;;;;;;;175.40;57.95;;;;;;;-1.70;100.00;100518.91;6267071;22;20093;-68
2024/01/06 07:57:32;;;;;;;175.35;55.03;;;;;;;-1.74;100.00;100522.63;6268846;22;20023;-68
2024/01/06 07:59:58;;;;;;;182.75;59.58;;;;;;;-1.74;100.00;100527.94;6268587;22;20024;-68
2024/01/06 08:02:29;;;;;;;176.88;58.30;;;;;;;-1.78;99.93;100525.44;6268673;22;20023;-68
2024/01/06 08:04:56;;;;;;;178.48;57.35;;;;;;;-1.76;100.00;100519.13;6268120;22;20035;-68
2024/01/06 08:07:23;;;;;;;181.00;57.30;;;;;;;-1.81;100.00;100537.09;6269399;22;20338;-68
2024/01/06 08:09:50;;;;;;;171.25;56.50;;;;;;;-1.83;100.00;100549.59;6268423;22;20366;-68
2024/01/06 08:12:17;;;;;;;198.55;60.70;;;;;;;-1.81;100.00;100560.16;6267775;22;20069;-68
2024/01/06 08:14:44;;;;;;;184.10;57.58;;;;;;;-1.86;100.00;100561.19;6268321;22;20020;-68
2024/01/06 08:17:10;;;;;;;199.20;59.53;;;;;;;-1.82;100.00;100556.63;6268347;22;20066;-68
2024/01/06 08:19:37;;;;;;;209.35;59.33;;;;;;;-1.84;100.00;100547.81;6268163;22;20366;-68
2024/01/06 08:22:04;;;;;;;196.00;60.05;;;;;;;-1.87;100.00;100551.47;6268603;22;20023;-68
2024/01/06 08:24:30;;;;;;;203.23;59.90;;;;;;;-1.86;100.00;100552.34;6269045;22;20358;-68
2024/01/06 08:26:57;;;;;;;203.32;58.55;;;;;;;-1.92;100.00;100558.78;6268356;22;20020;-68
2024/01/06 08:29:24;;;;;;;192.68;59.47;;;;;;;-1.91;100.00;100560.50;6269313;22;20085;-68
2024/01/06 08:31:52;;;;;;;201.75;59.53;;;;;;;-1.92;100.00;100555.25;6268564;22;20439;-68
2024/01/06 08:34:19;;;;;;;207.15;63.45;;;;;;;-1.93;100.00;100565.03;6268951;22;20019;-68
2024/01/06 08:36:46;;;;;;;209.13;63.80;;;;;;;-1.88;100.00;100567.50;6268973;22;20032;-67
2024/01/06 08:39:12;;;;;;;223.85;65.63;;;;;;;-1.84;100.00;100566.44;6266752;22;20074;-68
2024/01/06 08:41:39;;;;;;;212.13;64.43;;;;;;;-1.75;100.00;100578.50;6267148;22;20094;-68
2024/01/06 08:44:06;;;;;;;210.13;62.55;;;;;;;-1.87;100.00;100588.69;6267827;22;20031;-68
2024/01/06 08:46:33;;;;;;;209.55;62.97;;;;;;;-1.96;100.00;100590.84;6268845;22;20100;-68
2024/01/06 08:49:00;;;;;;;213.18;62.67;;;;;;;-1.98;100.00;100584.72;6267980;22;20149;-68
2024/01/06 08:51:27;;;;;;;216.57;64.50;;;;;;;-1.96;100.00;100591.72;6267504;22;20026;-68
2024/01/06 08:53:53;;;;;;;215.90;63.38;;;;;;;-1.96;100.00;100597.03;6268178;22;20031;-68
2024/01/06 08:56:20;;;;;;;227.90;66.20;;;;;;;-1.92;100.00;100603.97;6266908;22;20090;-68
2024/01/06 08:58:47;;;;;;;213.38;65.78;;;;;;;-1.90;100.00;100601.25;6267193;22;20020;-68
2024/01/06 09:01:13;;;;;;;192.55;62.20;;;;;;;-1.92;99.95;100611.94;6267319;22;20109;-68
2024/01/06 09:03:40;;;;;;;206.43;63.65;;;;;;;-1.90;100.00;100622.50;6267685;22;20434;-68
2024/01/06 09:06:07;;;;;;;198.13;59.95;;;;;;;-1.98;99.82;100620.16;6267735;22;20031;-68
2024/01/06 09:08:33;;;;;;;191.95;60.75;;;;;;;-2.05;100.00;100628.41;6267623;22;20062;-67
2024/01/06 09:11:00;;;;;;;201.98;60.75;;;;;;;-1.98;99.89;100627.25;6267934;22;20465;-68
2024/01/06 09:13:26;;;;;;;188.63;59.70;;;;;;;-1.97;99.59;100634.28;6268295;22;20098;-68
2024/01/06 09:15:53;;;;;;;194.00;60.40;;;;;;;-2.03;99.73;100637.19;6269604;22;20654;-68
2024/01/06 09:18:20;;;;;;;200.02;62.58;;;;;;;-1.91;99.61;100636.72;6267969;22;20430;-68
2024/01/06 09:20:50;;;;;;;190.88;61.80;;;;;;;-1.93;99.24;100638.56;6268197;22;20030;-68
2024/01/06 09:23:16;;;;;;;207.65;63.95;;;;;;;-1.92;99.51;100645.63;6268700;22;20480;-68
2024/01/06 09:25:43;;;;;;;198.90;63.35;;;;;;;-1.86;99.49;100650.69;6267431;22;20133;-68
2024/01/06 09:28:10;;;;;;;195.13;62.72;;;;;;;-1.84;99.28;100655.94;6269845;22;20028;-68
2024/01/06 09:30:37;;;;;;;190.65;62.38;;;;;;;-1.87;99.31;100655.16;6269607;22;20078;-68
2024/01/06 09:33:04;;;;;;;184.00;63.08;;;;;;;-1.92;98.98;100662.44;6269148;22;20053;-68
2024/01/06 09:35:31;;;;;;;187.82;61.80;;;;;;;-1.96;98.96;100666.13;6270988;22;20362;-68
2024/01/06 09:37:58;;;;;;;190.48;63.78;;;;;;;-1.99;98.88;100654.75;6268556;22;20024;-68
2024/01/06 09:40:25;;;;;;;189.80;60.97;;;;;;;-2.04;99.05;100662.03;6269971;22;20019;-68
2024/01/06 09:42:53;;;;;;;185.45;59.95;;;;;;;-2.11;99.51;100661.41;6269481;22;20363;-68
2024/01/06 09:45:20;;;;;;;199.88;63.35;;;;;;;-2.03;99.30;100667.28;6269035;22;20497;-68
2024/01/06 09:47:51;;;;;;;193.07;58.70;;;;;;;-2.05;99.12;100660.28;6269297;22;20322;-68
2024/01/06 09:50:19;;;;;;;183.43;58.33;;;;;;;-2.07;99.35;100672.78;6274386;22;20057;-68
2024/01/06 09:53:06;;;;;;;184.77;60.30;;;;;;;-2.07;99.19;100672.78;6232499;22;20037;-68
2024/01/06 09:55:35;;;;;;;172.52;59.47;;;;;;;-2.09;99.27;100687.91;6271866;22;20056;-69
2024/01/06 09:58:02;;;;;;;184.35;59.92;;;;;;;-2.02;98.96;100686.78;6245633;22;20051;-69
2024/01/06 10:00:33;;;;;;;177.90;60.03;;;;;;;-2.12;98.94;100680.03;6271706;22;20030;-74
2024/01/06 10:03:00;;;;;;;176.85;61.35;;;;;;;-2.02;99.24;100690.28;6269942;22;20020;-68
2024/01/06 10:05:26;;;;;;;168.20;56.47;;;;;;;-2.12;98.94;100685.34;6269614;22;20127;-68
2024/01/06 10:07:53;;;;;;;170.05;58.70;;;;;;;-2.07;98.71;100688.72;6270206;22;20085;-68
2024/01/06 10:10:22;;;;;;;170.85;60.97;;;;;;;-2.09;98.92;100694.09;6270003;22;20024;-68
2024/01/06 10:12:54;;;;;;;168.45;58.50;;;;;;;-2.08;99.08;100708.25;6269271;22;20454;-67
2024/01/06 10:15:21;;;;;;;175.50;61.25;;;;;;;-2.03;98.45;100714.25;6270342;22;20023;-67
2024/01/06 10:17:47;;;;;;;182.93;61.80;;;;;;;-2.06;98.78;100701.06;6270525;22;20491;-70
2024/01/06 10:20:15;;;;;;;162.32;59.40;;;;;;;-2.07;98.74;100704.66;6269288;22;20469;-68
2024/01/06 10:22:42;;;;;;;168.60;60.70;;;;;;;-2.02;98.19;100703.59;6271461;22;20035;-69
2024/01/06 10:25:10;;;;;;;173.30;60.60;;;;;;;-2.05;98.43;100702.81;6268128;22;20020;-67
2024/01/06 10:27:38;;;;;;;161.25;60.38;;;;;;;-2.04;98.14;100694.78;6266781;22;20038;-68
2024/01/06 10:30:06;;;;;;;146.57;56.63;;;;;;;-2.07;97.88;100689.59;6268423;22;20090;-68
2024/01/06 10:32:34;;;;;;;151.50;57.42;;;;;;;-2.14;97.99;100688.06;6268903;22;20071;-67
2024/01/06 10:35:03;;;;;;;147.98;58.00;;;;;;;-2.10;97.43;100699.47;6267113;22;20019;-65
2024/01/06 10:37:30;;;;;;;140.93;55.45;;;;;;;-2.11;97.30;100697.75;6265242;22;20028;-66
2024/01/06 10:40:15;;;;;;;156.63;58.00;;;;;;;-2.07;97.68;100708.19;6265146;22;20020;-66
2024/01/06 10:42:45;;;;;;;140.52;55.65;;;;;;;-2.05;96.85;100711.66;6264545;22;20424;-66
2024/01/06 10:52:40;;;;;;;144.38;56.75;;;;;;;-1.89;96.55;100696.00;6264414;22;20035;-63
2024/01/06 10:55:07;;;;;;;132.85;54.33;;;;;;;-1.95;96.28;100707.72;6277226;22;20072;-61
2024/01/06 13:41:07;;;;;;;81.60;36.75;;;;;;;-2.17;92.42;100807.75;6266543;22;20480;-70
2024/01/06 13:43:34;;;;;;;76.13;34.97;;;;;;;-2.23;92.13;100816.78;6272302;22;20026;-70
2024/01/06 13:46:01;;;;;;;75.32;34.50;;;;;;;-2.28;92.83;100818.75;6270309;22;20442;-68
2024/01/06 13:48:28;;;;;;;84.07;38.55;;;;;;;-2.19;92.56;100825.53;6244925;22;20349;-70
2024/01/06 13:50:57;;;;;;;80.20;37.85;;;;;;;-2.14;92.38;100831.56;6269587;22;20106;-69
2024/01/06 13:53:23;;;;;;;78.32;39.03;;;;;;;-2.17;92.53;100835.19;6273625;22;20510;-68